sensor_id;sensor_type;location;lat;lon;timestamp;P1;durP1;ratioP1;P2;durP2;ratioP2
76123;SDS011;65173;48.066;20.976;2023-02-25T00:01:44;24.30;;;10.40;;
76123;SDS011;65173;48.066;20.976;2023-02-25T00:05:04;25.80;;;11.10;;
76123;SDS011;65173;48.066;20.976;2023-02-25T00:08:08;23.58;;;11.27;;
76123;SDS011;65173;48.066;20.976;2023-02-25T00:11:12;30.73;;;12.07;;
76123;SDS011;65173;48.066;20.976;2023-02-25T00:14:16;20.02;;;11.07;;
76123;SDS011;65173;48.066;20.976;2023-02-25T00:17:19;27.27;;;11.50;;
76123;SDS011;65173;48.066;20.976;2023-02-25T00:20:23;18.30;;;9.07;;
76123;SDS011;65173;48.066;20.976;2023-02-25T00:23:26;21.48;;;10.52;;
76123;SDS011;65173;48.066;20.976;2023-02-25T00:26:29;23.92;;;10.73;;
76123;SDS011;65173;48.066;20.976;2023-02-25T00:29:32;22.67;;;11.07;;
76123;SDS011;65173;48.066;20.976;2023-02-25T00:32:36;23.47;;;10.67;;
76123;SDS011;65173;48.066;20.976;2023-02-25T00:35:39;23.90;;;11.05;;
76123;SDS011;65173;48.066;20.976;2023-02-25T00:38:42;27.45;;;11.38;;
76123;SDS011;65173;48.066;20.976;2023-02-25T00:41:50;20.23;;;9.87;;
76123;SDS011;65173;48.066;20.976;2023-02-25T00:44:53;24.63;;;10.93;;
76123;SDS011;65173;48.066;20.976;2023-02-25T00:47:57;21.92;;;9.98;;
76123;SDS011;65173;48.066;20.976;2023-02-25T00:51:07;24.05;;;11.48;;
76123;SDS011;65173;48.066;20.976;2023-02-25T00:54:15;27.33;;;11.63;;
76123;SDS011;65173;48.066;20.976;2023-02-25T00:57:18;22.08;;;10.45;;
76123;SDS011;65173;48.066;20.976;2023-02-25T01:00:20;21.52;;;10.48;;
76123;SDS011;65173;48.066;20.976;2023-02-25T01:03:23;24.40;;;9.67;;
76123;SDS011;65173;48.066;20.976;2023-02-25T01:06:27;21.83;;;10.25;;
76123;SDS011;65173;48.066;20.976;2023-02-25T01:09:32;19.48;;;9.68;;
76123;SDS011;65173;48.066;20.976;2023-02-25T01:12:36;18.87;;;9.17;;
76123;SDS011;65173;48.066;20.976;2023-02-25T01:15:38;22.00;;;9.32;;
76123;SDS011;65173;48.066;20.976;2023-02-25T01:18:42;26.30;;;10.02;;
76123;SDS011;65173;48.066;20.976;2023-02-25T01:21:46;20.38;;;10.07;;
76123;SDS011;65173;48.066;20.976;2023-02-25T01:24:53;21.33;;;8.90;;
76123;SDS011;65173;48.066;20.976;2023-02-25T01:27:56;22.42;;;9.52;;
76123;SDS011;65173;48.066;20.976;2023-02-25T01:30:59;24.83;;;10.18;;
76123;SDS011;65173;48.066;20.976;2023-02-25T01:34:03;18.20;;;8.50;;
76123;SDS011;65173;48.066;20.976;2023-02-25T01:37:08;15.80;;;8.32;;
76123;SDS011;65173;48.066;20.976;2023-02-25T01:40:16;18.42;;;7.10;;
76123;SDS011;65173;48.066;20.976;2023-02-25T01:43:20;21.17;;;8.23;;
76123;SDS011;65173;48.066;20.976;2023-02-25T01:46:23;20.83;;;9.55;;
76123;SDS011;65173;48.066;20.976;2023-02-25T01:49:34;18.15;;;8.38;;
76123;SDS011;65173;48.066;20.976;2023-02-25T01:52:43;18.67;;;8.63;;
76123;SDS011;65173;48.066;20.976;2023-02-25T01:55:48;16.10;;;8.25;;
76123;SDS011;65173;48.066;20.976;2023-02-25T01:58:51;18.52;;;6.70;;
76123;SDS011;65173;48.066;20.976;2023-02-25T02:01:56;20.23;;;7.90;;
76123;SDS011;65173;48.066;20.976;2023-02-25T02:04:59;12.53;;;6.43;;
76123;SDS011;65173;48.066;20.976;2023-02-25T02:08:02;24.45;;;9.00;;
76123;SDS011;65173;48.066;20.976;2023-02-25T02:11:05;18.10;;;8.10;;
76123;SDS011;65173;48.066;20.976;2023-02-25T02:14:09;21.77;;;8.73;;
76123;SDS011;65173;48.066;20.976;2023-02-25T02:20:32;25.17;;;8.95;;
76123;SDS011;65173;48.066;20.976;2023-02-25T02:23:51;13.75;;;6.68;;
76123;SDS011;65173;48.066;20.976;2023-02-25T02:41:14;19.67;;;8.38;;
76123;SDS011;65173;48.066;20.976;2023-02-25T02:44:30;19.48;;;7.72;;
76123;SDS011;65173;48.066;20.976;2023-02-25T02:47:43;20.53;;;9.13;;
76123;SDS011;65173;48.066;20.976;2023-02-25T02:50:52;19.42;;;8.80;;
76123;SDS011;65173;48.066;20.976;2023-02-25T02:54:00;16.70;;;8.60;;
76123;SDS011;65173;48.066;20.976;2023-02-25T02:57:08;19.98;;;9.02;;
76123;SDS011;65173;48.066;20.976;2023-02-25T03:00:16;16.85;;;8.18;;
76123;SDS011;65173;48.066;20.976;2023-02-25T03:03:26;24.90;;;8.98;;
76123;SDS011;65173;48.066;20.976;2023-02-25T03:06:43;18.25;;;7.97;;
76123;SDS011;65173;48.066;20.976;2023-02-25T03:09:54;18.17;;;8.60;;
76123;SDS011;65173;48.066;20.976;2023-02-25T03:13:06;16.83;;;8.18;;
76123;SDS011;65173;48.066;20.976;2023-02-25T03:16:11;29.52;;;8.18;;
76123;SDS011;65173;48.066;20.976;2023-02-25T03:19:33;22.60;;;7.90;;
76123;SDS011;65173;48.066;20.976;2023-02-25T03:22:41;17.60;;;7.60;;
76123;SDS011;65173;48.066;20.976;2023-02-25T03:25:50;24.50;;;8.90;;
76123;SDS011;65173;48.066;20.976;2023-02-25T03:28:55;16.45;;;7.88;;
76123;SDS011;65173;48.066;20.976;2023-02-25T03:32:01;17.15;;;8.18;;
76123;SDS011;65173;48.066;20.976;2023-02-25T03:35:10;20.10;;;7.80;;
76123;SDS011;65173;48.066;20.976;2023-02-25T03:38:17;18.02;;;8.95;;
76123;SDS011;65173;48.066;20.976;2023-02-25T03:41:26;18.47;;;8.17;;
76123;SDS011;65173;48.066;20.976;2023-02-25T03:44:35;19.08;;;8.05;;
76123;SDS011;65173;48.066;20.976;2023-02-25T03:47:43;16.45;;;7.32;;
76123;SDS011;65173;48.066;20.976;2023-02-25T03:50:50;18.73;;;8.83;;
76123;SDS011;65173;48.066;20.976;2023-02-25T03:53:56;21.02;;;8.27;;
76123;SDS011;65173;48.066;20.976;2023-02-25T03:57:06;21.02;;;9.88;;
76123;SDS011;65173;48.066;20.976;2023-02-25T04:00:15;30.98;;;12.98;;
76123;SDS011;65173;48.066;20.976;2023-02-25T04:03:24;25.17;;;10.27;;
76123;SDS011;65173;48.066;20.976;2023-02-25T04:06:27;14.32;;;6.65;;
76123;SDS011;65173;48.066;20.976;2023-02-25T04:09:30;21.50;;;8.93;;
76123;SDS011;65173;48.066;20.976;2023-02-25T04:12:33;27.10;;;10.50;;
76123;SDS011;65173;48.066;20.976;2023-02-25T04:15:36;18.17;;;9.30;;
76123;SDS011;65173;48.066;20.976;2023-02-25T04:18:40;16.20;;;8.10;;
76123;SDS011;65173;48.066;20.976;2023-02-25T04:21:43;16.50;;;7.97;;
76123;SDS011;65173;48.066;20.976;2023-02-25T04:24:46;16.88;;;8.55;;
76123;SDS011;65173;48.066;20.976;2023-02-25T04:27:49;22.92;;;12.15;;
76123;SDS011;65173;48.066;20.976;2023-02-25T04:30:52;17.75;;;8.73;;
76123;SDS011;65173;48.066;20.976;2023-02-25T04:33:55;16.67;;;9.18;;
76123;SDS011;65173;48.066;20.976;2023-02-25T04:36:59;17.45;;;7.93;;
76123;SDS011;65173;48.066;20.976;2023-02-25T04:40:06;23.23;;;9.00;;
76123;SDS011;65173;48.066;20.976;2023-02-25T04:43:16;17.57;;;8.33;;
76123;SDS011;65173;48.066;20.976;2023-02-25T04:46:19;18.85;;;9.07;;
76123;SDS011;65173;48.066;20.976;2023-02-25T04:49:23;17.83;;;8.90;;
76123;SDS011;65173;48.066;20.976;2023-02-25T04:52:27;22.90;;;10.63;;
76123;SDS011;65173;48.066;20.976;2023-02-25T04:55:29;23.75;;;11.43;;
76123;SDS011;65173;48.066;20.976;2023-02-25T04:58:33;18.90;;;7.90;;
76123;SDS011;65173;48.066;20.976;2023-02-25T05:01:37;23.60;;;10.95;;
76123;SDS011;65173;48.066;20.976;2023-02-25T05:04:40;16.70;;;9.20;;
76123;SDS011;65173;48.066;20.976;2023-02-25T05:07:44;19.65;;;10.02;;
76123;SDS011;65173;48.066;20.976;2023-02-25T05:10:47;22.15;;;10.25;;
76123;SDS011;65173;48.066;20.976;2023-02-25T05:13:50;21.87;;;11.90;;
76123;SDS011;65173;48.066;20.976;2023-02-25T05:16:54;23.50;;;12.23;;
76123;SDS011;65173;48.066;20.976;2023-02-25T05:19:57;20.40;;;9.25;;
76123;SDS011;65173;48.066;20.976;2023-02-25T05:23:01;16.13;;;6.33;;
76123;SDS011;65173;48.066;20.976;2023-02-25T05:26:04;19.23;;;8.13;;
76123;SDS011;65173;48.066;20.976;2023-02-25T05:29:08;16.33;;;8.30;;
76123;SDS011;65173;48.066;20.976;2023-02-25T05:32:11;22.63;;;10.80;;
76123;SDS011;65173;48.066;20.976;2023-02-25T05:35:14;20.75;;;10.15;;
76123;SDS011;65173;48.066;20.976;2023-02-25T05:38:17;18.88;;;10.15;;
76123;SDS011;65173;48.066;20.976;2023-02-25T05:41:20;18.25;;;9.88;;
76123;SDS011;65173;48.066;20.976;2023-02-25T05:44:23;19.87;;;8.73;;
76123;SDS011;65173;48.066;20.976;2023-02-25T05:47:26;13.98;;;6.60;;
76123;SDS011;65173;48.066;20.976;2023-02-25T05:50:29;17.73;;;8.23;;
76123;SDS011;65173;48.066;20.976;2023-02-25T05:53:36;21.03;;;10.43;;
76123;SDS011;65173;48.066;20.976;2023-02-25T05:56:39;21.13;;;9.75;;
76123;SDS011;65173;48.066;20.976;2023-02-25T05:59:42;17.35;;;8.23;;
76123;SDS011;65173;48.066;20.976;2023-02-25T06:02:46;14.30;;;7.80;;
76123;SDS011;65173;48.066;20.976;2023-02-25T06:05:49;22.55;;;10.38;;
76123;SDS011;65173;48.066;20.976;2023-02-25T06:08:52;26.23;;;11.80;;
76123;SDS011;65173;48.066;20.976;2023-02-25T06:11:56;23.17;;;11.77;;
76123;SDS011;65173;48.066;20.976;2023-02-25T06:14:59;27.47;;;10.57;;
76123;SDS011;65173;48.066;20.976;2023-02-25T06:18:02;25.00;;;11.48;;
76123;SDS011;65173;48.066;20.976;2023-02-25T06:21:07;29.25;;;12.30;;
76123;SDS011;65173;48.066;20.976;2023-02-25T06:24:12;17.90;;;9.87;;
76123;SDS011;65173;48.066;20.976;2023-02-25T06:27:15;21.13;;;10.00;;
76123;SDS011;65173;48.066;20.976;2023-02-25T06:30:18;16.85;;;8.75;;
76123;SDS011;65173;48.066;20.976;2023-02-25T06:33:21;24.77;;;10.30;;
76123;SDS011;65173;48.066;20.976;2023-02-25T06:36:25;22.20;;;9.68;;
76123;SDS011;65173;48.066;20.976;2023-02-25T06:39:28;15.48;;;6.68;;
76123;SDS011;65173;48.066;20.976;2023-02-25T06:42:31;17.75;;;7.93;;
76123;SDS011;65173;48.066;20.976;2023-02-25T06:45:35;19.53;;;8.47;;
76123;SDS011;65173;48.066;20.976;2023-02-25T06:48:38;26.48;;;12.27;;
76123;SDS011;65173;48.066;20.976;2023-02-25T06:51:41;13.82;;;7.38;;
76123;SDS011;65173;48.066;20.976;2023-02-25T06:54:44;13.47;;;6.63;;
76123;SDS011;65173;48.066;20.976;2023-02-25T06:57:47;19.80;;;8.88;;
76123;SDS011;65173;48.066;20.976;2023-02-25T07:00:50;14.00;;;7.53;;
76123;SDS011;65173;48.066;20.976;2023-02-25T07:03:53;11.77;;;6.57;;
76123;SDS011;65173;48.066;20.976;2023-02-25T07:06:56;8.88;;;5.07;;
76123;SDS011;65173;48.066;20.976;2023-02-25T07:09:59;10.95;;;5.25;;
76123;SDS011;65173;48.066;20.976;2023-02-25T07:13:03;13.82;;;6.78;;
76123;SDS011;65173;48.066;20.976;2023-02-25T07:16:05;16.93;;;6.13;;
76123;SDS011;65173;48.066;20.976;2023-02-25T07:19:09;14.23;;;7.32;;
76123;SDS011;65173;48.066;20.976;2023-02-25T07:22:13;13.45;;;7.35;;
76123;SDS011;65173;48.066;20.976;2023-02-25T07:25:17;14.57;;;7.53;;
76123;SDS011;65173;48.066;20.976;2023-02-25T07:28:20;16.15;;;7.47;;
76123;SDS011;65173;48.066;20.976;2023-02-25T07:31:24;15.27;;;6.97;;
76123;SDS011;65173;48.066;20.976;2023-02-25T07:34:29;11.95;;;5.53;;
76123;SDS011;65173;48.066;20.976;2023-02-25T07:37:31;12.63;;;6.15;;
76123;SDS011;65173;48.066;20.976;2023-02-25T07:40:34;14.57;;;7.13;;
76123;SDS011;65173;48.066;20.976;2023-02-25T07:43:38;14.88;;;6.72;;
76123;SDS011;65173;48.066;20.976;2023-02-25T07:46:41;14.37;;;6.00;;
76123;SDS011;65173;48.066;20.976;2023-02-25T07:49:44;12.60;;;5.95;;
76123;SDS011;65173;48.066;20.976;2023-02-25T07:52:47;14.63;;;6.40;;
76123;SDS011;65173;48.066;20.976;2023-02-25T07:55:50;11.63;;;5.37;;
76123;SDS011;65173;48.066;20.976;2023-02-25T07:58:53;11.80;;;5.35;;
76123;SDS011;65173;48.066;20.976;2023-02-25T08:01:57;12.98;;;5.40;;
76123;SDS011;65173;48.066;20.976;2023-02-25T08:05:00;8.45;;;3.25;;
76123;SDS011;65173;48.066;20.976;2023-02-25T08:08:03;9.82;;;3.70;;
76123;SDS011;65173;48.066;20.976;2023-02-25T08:11:08;7.97;;;3.20;;
76123;SDS011;65173;48.066;20.976;2023-02-25T08:14:12;4.18;;;2.10;;
76123;SDS011;65173;48.066;20.976;2023-02-25T08:17:15;1.87;;;1.03;;
76123;SDS011;65173;48.066;20.976;2023-02-25T08:20:20;6.40;;;3.03;;
76123;SDS011;65173;48.066;20.976;2023-02-25T08:23:23;10.82;;;7.60;;
76123;SDS011;65173;48.066;20.976;2023-02-25T08:26:26;4.07;;;1.80;;
76123;SDS011;65173;48.066;20.976;2023-02-25T08:29:29;3.60;;;1.55;;
76123;SDS011;65173;48.066;20.976;2023-02-25T08:32:32;4.20;;;1.40;;
76123;SDS011;65173;48.066;20.976;2023-02-25T08:35:36;3.03;;;1.70;;
76123;SDS011;65173;48.066;20.976;2023-02-25T08:38:40;5.97;;;3.67;;
76123;SDS011;65173;48.066;20.976;2023-02-25T08:41:43;2.95;;;1.65;;
76123;SDS011;65173;48.066;20.976;2023-02-25T08:44:46;2.30;;;1.33;;
76123;SDS011;65173;48.066;20.976;2023-02-25T08:47:49;6.17;;;2.13;;
76123;SDS011;65173;48.066;20.976;2023-02-25T08:50:52;2.22;;;0.68;;
76123;SDS011;65173;48.066;20.976;2023-02-25T08:53:56;2.13;;;1.08;;
76123;SDS011;65173;48.066;20.976;2023-02-25T08:56:59;2.40;;;1.13;;
76123;SDS011;65173;48.066;20.976;2023-02-25T09:00:02;1.15;;;0.70;;
76123;SDS011;65173;48.066;20.976;2023-02-25T09:03:08;3.65;;;1.00;;
76123;SDS011;65173;48.066;20.976;2023-02-25T09:06:11;1.17;;;0.77;;
76123;SDS011;65173;48.066;20.976;2023-02-25T09:09:15;0.30;;;0.20;;
76123;SDS011;65173;48.066;20.976;2023-02-25T09:12:19;1.23;;;0.52;;
76123;SDS011;65173;48.066;20.976;2023-02-25T09:15:25;1.33;;;0.77;;
76123;SDS011;65173;48.066;20.976;2023-02-25T09:18:28;2.47;;;1.20;;
76123;SDS011;65173;48.066;20.976;2023-02-25T09:21:32;4.03;;;2.67;;
76123;SDS011;65173;48.066;20.976;2023-02-25T09:24:37;2.25;;;0.95;;
76123;SDS011;65173;48.066;20.976;2023-02-25T09:27:40;8.77;;;2.73;;
76123;SDS011;65173;48.066;20.976;2023-02-25T09:30:44;6.40;;;3.05;;
76123;SDS011;65173;48.066;20.976;2023-02-25T09:33:48;7.57;;;3.10;;
76123;SDS011;65173;48.066;20.976;2023-02-25T09:36:51;4.13;;;1.85;;
76123;SDS011;65173;48.066;20.976;2023-02-25T09:39:53;2.30;;;1.15;;
76123;SDS011;65173;48.066;20.976;2023-02-25T09:43:02;4.90;;;1.50;;
76123;SDS011;65173;48.066;20.976;2023-02-25T09:46:11;4.15;;;2.20;;
76123;SDS011;65173;48.066;20.976;2023-02-25T09:52:58;1.08;;;0.63;;
76123;SDS011;65173;48.066;20.976;2023-02-25T09:56:09;2.90;;;1.95;;
76123;SDS011;65173;48.066;20.976;2023-02-25T09:59:18;5.23;;;1.97;;
76123;SDS011;65173;48.066;20.976;2023-02-25T10:02:47;3.33;;;1.70;;
76123;SDS011;65173;48.066;20.976;2023-02-25T10:05:54;1.70;;;0.80;;
76123;SDS011;65173;48.066;20.976;2023-02-25T10:15:26;3.92;;;1.58;;
76123;SDS011;65173;48.066;20.976;2023-02-25T10:18:53;18.38;;;2.65;;
76123;SDS011;65173;48.066;20.976;2023-02-25T10:25:45;3.67;;;0.80;;
76123;SDS011;65173;48.066;20.976;2023-02-25T10:29:07;2.13;;;0.95;;
76123;SDS011;65173;48.066;20.976;2023-02-25T10:32:23;1.83;;;0.73;;
76123;SDS011;65173;48.066;20.976;2023-02-25T10:35:31;0.70;;;0.50;;
76123;SDS011;65173;48.066;20.976;2023-02-25T10:38:38;1.15;;;0.55;;
76123;SDS011;65173;48.066;20.976;2023-02-25T10:41:46;0.50;;;0.25;;
76123;SDS011;65173;48.066;20.976;2023-02-25T10:44:50;1.60;;;0.30;;
76123;SDS011;65173;48.066;20.976;2023-02-25T10:47:54;0.80;;;0.35;;
76123;SDS011;65173;48.066;20.976;2023-02-25T10:54:13;4.97;;;0.53;;
76123;SDS011;65173;48.066;20.976;2023-02-25T10:57:26;1.30;;;0.20;;
76123;SDS011;65173;48.066;20.976;2023-02-25T11:00:35;3.25;;;0.95;;
76123;SDS011;65173;48.066;20.976;2023-02-25T11:03:44;0.83;;;0.57;;
76123;SDS011;65173;48.066;20.976;2023-02-25T11:07:21;0.93;;;0.57;;
76123;SDS011;65173;48.066;20.976;2023-02-25T11:10:34;0.63;;;0.40;;
76123;SDS011;65173;48.066;20.976;2023-02-25T11:13:37;1.38;;;0.57;;
76123;SDS011;65173;48.066;20.976;2023-02-25T11:16:42;0.90;;;0.47;;
76123;SDS011;65173;48.066;20.976;2023-02-25T11:19:47;1.40;;;0.50;;
76123;SDS011;65173;48.066;20.976;2023-02-25T11:22:58;2.05;;;0.73;;
76123;SDS011;65173;48.066;20.976;2023-02-25T11:26:01;1.80;;;0.60;;
76123;SDS011;65173;48.066;20.976;2023-02-25T11:29:06;0.77;;;0.52;;
76123;SDS011;65173;48.066;20.976;2023-02-25T11:32:15;1.08;;;0.40;;
76123;SDS011;65173;48.066;20.976;2023-02-25T11:35:23;3.03;;;0.50;;
76123;SDS011;65173;48.066;20.976;2023-02-25T11:41:39;0.45;;;0.30;;
76123;SDS011;65173;48.066;20.976;2023-02-25T11:44:42;0.65;;;0.40;;
76123;SDS011;65173;48.066;20.976;2023-02-25T11:47:46;1.85;;;0.60;;
76123;SDS011;65173;48.066;20.976;2023-02-25T12:00:44;1.20;;;0.60;;
76123;SDS011;65173;48.066;20.976;2023-02-25T12:29:14;1.20;;;0.77;;
76123;SDS011;65173;48.066;20.976;2023-02-25T12:42:12;2.73;;;1.20;;
76123;SDS011;65173;48.066;20.976;2023-02-25T12:49:10;2.85;;;1.27;;
76123;SDS011;65173;48.066;20.976;2023-02-25T13:02:33;0.85;;;0.50;;
76123;SDS011;65173;48.066;20.976;2023-02-25T13:23:02;0.95;;;0.40;;
76123;SDS011;65173;48.066;20.976;2023-02-25T13:33:18;3.80;;;1.45;;
76123;SDS011;65173;48.066;20.976;2023-02-25T13:50:51;1.40;;;0.63;;
76123;SDS011;65173;48.066;20.976;2023-02-25T13:57:29;0.68;;;0.30;;
76123;SDS011;65173;48.066;20.976;2023-02-25T14:10:45;0.60;;;0.20;;
76123;SDS011;65173;48.066;20.976;2023-02-25T14:13:59;1.40;;;0.60;;
76123;SDS011;65173;48.066;20.976;2023-02-25T14:23:50;1.03;;;0.60;;
76123;SDS011;65173;48.066;20.976;2023-02-25T14:33:58;3.78;;;1.98;;
76123;SDS011;65173;48.066;20.976;2023-02-25T14:44:06;0.50;;;0.50;;
76123;SDS011;65173;48.066;20.976;2023-02-25T14:47:25;4.33;;;2.60;;
76123;SDS011;65173;48.066;20.976;2023-02-25T14:54:31;2.03;;;1.05;;
76123;SDS011;65173;48.066;20.976;2023-02-25T14:57:34;1.10;;;0.67;;
76123;SDS011;65173;48.066;20.976;2023-02-25T15:00:57;4.53;;;1.33;;
76123;SDS011;65173;48.066;20.976;2023-02-25T15:24:43;4.38;;;1.20;;
76123;SDS011;65173;48.066;20.976;2023-02-25T15:27:49;2.97;;;1.05;;
76123;SDS011;65173;48.066;20.976;2023-02-25T15:40:52;1.33;;;0.82;;
76123;SDS011;65173;48.066;20.976;2023-02-25T15:44:00;1.60;;;0.85;;
76123;SDS011;65173;48.066;20.976;2023-02-25T15:53:47;3.10;;;1.20;;
76123;SDS011;65173;48.066;20.976;2023-02-25T15:56:51;2.90;;;1.15;;
76123;SDS011;65173;48.066;20.976;2023-02-25T15:59:55;1.15;;;0.57;;
76123;SDS011;65173;48.066;20.976;2023-02-25T16:02:59;4.10;;;1.57;;
76123;SDS011;65173;48.066;20.976;2023-02-25T16:06:11;6.53;;;2.20;;
76123;SDS011;65173;48.066;20.976;2023-02-25T16:09:17;60.67;;;22.85;;
76123;SDS011;65173;48.066;20.976;2023-02-25T16:12:21;58.13;;;21.23;;
76123;SDS011;65173;48.066;20.976;2023-02-25T16:15:37;39.33;;;14.90;;
76123;SDS011;65173;48.066;20.976;2023-02-25T16:18:47;18.27;;;6.55;;
76123;SDS011;65173;48.066;20.976;2023-02-25T16:25:36;20.83;;;8.40;;
76123;SDS011;65173;48.066;20.976;2023-02-25T16:28:57;7.40;;;3.58;;
76123;SDS011;65173;48.066;20.976;2023-02-25T16:35:14;10.93;;;5.80;;
76123;SDS011;65173;48.066;20.976;2023-02-25T16:38:45;7.00;;;4.03;;
76123;SDS011;65173;48.066;20.976;2023-02-25T16:42:12;21.05;;;6.55;;
76123;SDS011;65173;48.066;20.976;2023-02-25T16:46:01;3.22;;;1.73;;
76123;SDS011;65173;48.066;20.976;2023-02-25T16:49:06;6.22;;;3.20;;
76123;SDS011;65173;48.066;20.976;2023-02-25T16:52:16;13.27;;;6.07;;
76123;SDS011;65173;48.066;20.976;2023-02-25T16:55:28;11.38;;;5.35;;
76123;SDS011;65173;48.066;20.976;2023-02-25T16:58:37;6.83;;;3.00;;
76123;SDS011;65173;48.066;20.976;2023-02-25T17:01:57;5.05;;;1.70;;
76123;SDS011;65173;48.066;20.976;2023-02-25T17:08:31;2.70;;;0.70;;
76123;SDS011;65173;48.066;20.976;2023-02-25T17:11:34;1.38;;;0.70;;
76123;SDS011;65173;48.066;20.976;2023-02-25T17:14:41;4.93;;;0.95;;
76123;SDS011;65173;48.066;20.976;2023-02-25T17:17:48;4.25;;;2.10;;
76123;SDS011;65173;48.066;20.976;2023-02-25T17:21:05;9.80;;;3.70;;
76123;SDS011;65173;48.066;20.976;2023-02-25T17:24:26;8.00;;;4.28;;
76123;SDS011;65173;48.066;20.976;2023-02-25T17:27:32;8.32;;;4.63;;
76123;SDS011;65173;48.066;20.976;2023-02-25T17:30:40;6.37;;;2.90;;
76123;SDS011;65173;48.066;20.976;2023-02-25T17:33:49;43.90;;;14.23;;
76123;SDS011;65173;48.066;20.976;2023-02-25T17:36:53;26.48;;;9.30;;
76123;SDS011;65173;48.066;20.976;2023-02-25T17:39:59;64.77;;;23.43;;
76123;SDS011;65173;48.066;20.976;2023-02-25T17:46:22;11.07;;;3.40;;
76123;SDS011;65173;48.066;20.976;2023-02-25T17:52:32;5.85;;;2.00;;
76123;SDS011;65173;48.066;20.976;2023-02-25T17:55:35;4.70;;;1.73;;
76123;SDS011;65173;48.066;20.976;2023-02-25T17:58:42;6.15;;;2.15;;
76123;SDS011;65173;48.066;20.976;2023-02-25T18:01:53;3.13;;;1.30;;
76123;SDS011;65173;48.066;20.976;2023-02-25T18:08:21;2.30;;;1.40;;
76123;SDS011;65173;48.066;20.976;2023-02-25T18:11:31;5.13;;;1.73;;
76123;SDS011;65173;48.066;20.976;2023-02-25T18:14:37;5.53;;;2.17;;
76123;SDS011;65173;48.066;20.976;2023-02-25T18:18:04;6.45;;;2.33;;
76123;SDS011;65173;48.066;20.976;2023-02-25T18:21:09;6.38;;;3.33;;
76123;SDS011;65173;48.066;20.976;2023-02-25T18:24:23;4.18;;;2.03;;
76123;SDS011;65173;48.066;20.976;2023-02-25T18:27:31;4.95;;;1.80;;
76123;SDS011;65173;48.066;20.976;2023-02-25T18:30:40;7.25;;;3.08;;
76123;SDS011;65173;48.066;20.976;2023-02-25T18:33:44;6.57;;;2.77;;
76123;SDS011;65173;48.066;20.976;2023-02-25T18:36:47;8.38;;;3.60;;
76123;SDS011;65173;48.066;20.976;2023-02-25T18:39:51;7.95;;;5.15;;
76123;SDS011;65173;48.066;20.976;2023-02-25T18:42:54;10.90;;;6.43;;
76123;SDS011;65173;48.066;20.976;2023-02-25T18:45:58;9.77;;;5.78;;
76123;SDS011;65173;48.066;20.976;2023-02-25T18:49:01;10.57;;;5.68;;
76123;SDS011;65173;48.066;20.976;2023-02-25T18:52:05;12.30;;;6.00;;
76123;SDS011;65173;48.066;20.976;2023-02-25T18:55:17;14.13;;;6.38;;
76123;SDS011;65173;48.066;20.976;2023-02-25T18:58:23;8.13;;;3.40;;
76123;SDS011;65173;48.066;20.976;2023-02-25T19:01:29;4.20;;;2.47;;
76123;SDS011;65173;48.066;20.976;2023-02-25T19:04:34;5.43;;;3.07;;
76123;SDS011;65173;48.066;20.976;2023-02-25T19:07:37;8.57;;;4.03;;
76123;SDS011;65173;48.066;20.976;2023-02-25T19:10:41;40.33;;;14.73;;
76123;SDS011;65173;48.066;20.976;2023-02-25T19:13:45;10.27;;;6.90;;
76123;SDS011;65173;48.066;20.976;2023-02-25T19:16:48;8.38;;;4.75;;
76123;SDS011;65173;48.066;20.976;2023-02-25T19:19:51;9.27;;;4.47;;
76123;SDS011;65173;48.066;20.976;2023-02-25T19:22:55;7.45;;;2.90;;
76123;SDS011;65173;48.066;20.976;2023-02-25T19:25:58;2.42;;;1.63;;
76123;SDS011;65173;48.066;20.976;2023-02-25T19:29:01;0.73;;;0.57;;
76123;SDS011;65173;48.066;20.976;2023-02-25T19:32:05;1.45;;;0.80;;
76123;SDS011;65173;48.066;20.976;2023-02-25T19:35:08;2.57;;;0.80;;
76123;SDS011;65173;48.066;20.976;2023-02-25T19:38:13;1.77;;;0.93;;
76123;SDS011;65173;48.066;20.976;2023-02-25T19:41:18;1.63;;;0.60;;
76123;SDS011;65173;48.066;20.976;2023-02-25T19:44:21;1.70;;;1.03;;
76123;SDS011;65173;48.066;20.976;2023-02-25T19:47:24;4.40;;;1.50;;
76123;SDS011;65173;48.066;20.976;2023-02-25T19:50:28;3.58;;;1.20;;
76123;SDS011;65173;48.066;20.976;2023-02-25T19:53:33;2.67;;;0.80;;
76123;SDS011;65173;48.066;20.976;2023-02-25T19:56:38;3.83;;;1.58;;
76123;SDS011;65173;48.066;20.976;2023-02-25T19:59:41;3.15;;;1.90;;
76123;SDS011;65173;48.066;20.976;2023-02-25T20:02:45;3.13;;;1.20;;
76123;SDS011;65173;48.066;20.976;2023-02-25T20:05:48;2.67;;;1.40;;
76123;SDS011;65173;48.066;20.976;2023-02-25T20:08:51;2.83;;;1.00;;
76123;SDS011;65173;48.066;20.976;2023-02-25T20:11:57;2.25;;;1.20;;
76123;SDS011;65173;48.066;20.976;2023-02-25T20:15:00;3.70;;;1.30;;
76123;SDS011;65173;48.066;20.976;2023-02-25T20:18:04;1.75;;;1.05;;
76123;SDS011;65173;48.066;20.976;2023-02-25T20:21:08;3.47;;;1.20;;
76123;SDS011;65173;48.066;20.976;2023-02-25T20:24:12;3.25;;;1.35;;
76123;SDS011;65173;48.066;20.976;2023-02-25T20:27:15;1.75;;;0.95;;
76123;SDS011;65173;48.066;20.976;2023-02-25T20:30:22;3.08;;;1.10;;
76123;SDS011;65173;48.066;20.976;2023-02-25T20:33:26;2.08;;;0.98;;
76123;SDS011;65173;48.066;20.976;2023-02-25T20:36:30;2.57;;;1.20;;
76123;SDS011;65173;48.066;20.976;2023-02-25T20:39:52;2.40;;;1.00;;
76123;SDS011;65173;48.066;20.976;2023-02-25T20:42:57;2.88;;;0.82;;
76123;SDS011;65173;48.066;20.976;2023-02-25T20:46:00;3.57;;;1.53;;
76123;SDS011;65173;48.066;20.976;2023-02-25T20:49:03;2.63;;;1.35;;
76123;SDS011;65173;48.066;20.976;2023-02-25T20:52:09;3.97;;;1.13;;
76123;SDS011;65173;48.066;20.976;2023-02-25T20:55:12;3.35;;;1.30;;
76123;SDS011;65173;48.066;20.976;2023-02-25T20:58:15;3.45;;;1.40;;
76123;SDS011;65173;48.066;20.976;2023-02-25T21:01:19;4.82;;;1.55;;
76123;SDS011;65173;48.066;20.976;2023-02-25T21:04:23;3.75;;;1.88;;
76123;SDS011;65173;48.066;20.976;2023-02-25T21:07:26;3.27;;;1.63;;
76123;SDS011;65173;48.066;20.976;2023-02-25T21:10:29;4.47;;;1.73;;
76123;SDS011;65173;48.066;20.976;2023-02-25T21:13:32;3.83;;;1.85;;
76123;SDS011;65173;48.066;20.976;2023-02-25T21:16:39;3.93;;;1.30;;
76123;SDS011;65173;48.066;20.976;2023-02-25T21:19:42;1.73;;;1.35;;
76123;SDS011;65173;48.066;20.976;2023-02-25T21:22:46;2.53;;;1.48;;
76123;SDS011;65173;48.066;20.976;2023-02-25T21:25:50;4.25;;;1.90;;
76123;SDS011;65173;48.066;20.976;2023-02-25T21:28:53;3.63;;;1.65;;
76123;SDS011;65173;48.066;20.976;2023-02-25T21:31:56;4.35;;;1.77;;
76123;SDS011;65173;48.066;20.976;2023-02-25T21:35:00;4.07;;;1.60;;
76123;SDS011;65173;48.066;20.976;2023-02-25T21:38:03;3.40;;;2.00;;
76123;SDS011;65173;48.066;20.976;2023-02-25T21:41:07;3.90;;;1.98;;
76123;SDS011;65173;48.066;20.976;2023-02-25T21:44:14;21.23;;;9.68;;
76123;SDS011;65173;48.066;20.976;2023-02-25T21:47:17;13.73;;;5.57;;
76123;SDS011;65173;48.066;20.976;2023-02-25T21:50:20;14.35;;;5.80;;
76123;SDS011;65173;48.066;20.976;2023-02-25T21:53:23;9.57;;;4.07;;
76123;SDS011;65173;48.066;20.976;2023-02-25T21:56:29;10.20;;;3.70;;
76123;SDS011;65173;48.066;20.976;2023-02-25T21:59:32;5.85;;;2.90;;
76123;SDS011;65173;48.066;20.976;2023-02-25T22:02:35;4.13;;;1.55;;
76123;SDS011;65173;48.066;20.976;2023-02-25T22:05:42;1.83;;;0.90;;